KDKK/DKK METAR and TAF weather

Enter ICAO airport designator
Station Type Date Time Source
KDKK METAR 2020/03/29 10:53 UTC NOAA

KDKK 291053Z AUTO 11009KT 10SM BKN080 OVC100 16/13 A2965 RMK AO2 RAB01E16 SLP039 P0000 T01610133


Station Type Date Time Source
KDKK Decoded METAR 2020/03/29 10:53 UTC NOAA

CHAUTAUQUA COUNTY/DUNKIRK, NY, United States (KDKK) 42-30N 079-17W 202M
Mar 29, 2020 - 06:53 AM EDT / 2020.03.29 1053 UTC
Wind: from the ESE (110 degrees) at 10 MPH (9 KT):0
Visibility: 10 mile(s):0
Sky conditions: overcast
Precipitation last hour: A trace
Temperature: 61.0 F (16.1 C)
Dew Point: 55.9 F (13.3 C)
Relative Humidity: 83%
Pressure (altimeter): 29.65 in. Hg (1004 hPa)
ob: KDKK 291053Z AUTO 11009KT 10SM BKN080 OVC100 16/13 A2965 RMK AO2 RAB01E16 SLP039 P0000 T01610133
cycle: 11

Station Type Date Time Source
KDKK TAF UTC NOAA

Error!

Example: see airport list